createdAt,value
2022-11-24T00:00:53.340Z,997.21
2022-11-24T00:01:53.476Z,997.19
2022-11-24T00:02:53.780Z,997.19
2022-11-24T00:03:53.725Z,997.27
2022-11-24T00:04:53.909Z,997.24
2022-11-24T00:05:53.979Z,997.20
2022-11-24T00:06:54.109Z,997.17
2022-11-24T00:07:54.308Z,997.26
2022-11-24T00:08:54.437Z,997.31
2022-11-24T00:09:54.519Z,997.15
2022-11-24T00:10:54.668Z,997.26
2022-11-24T00:11:54.799Z,997.30
2022-11-24T00:12:54.939Z,997.29
2022-11-24T00:13:55.071Z,997.35
2022-11-24T00:14:55.228Z,997.37
2022-11-24T00:15:55.354Z,997.33
2022-11-24T00:16:55.526Z,997.29
2022-11-24T00:17:55.651Z,997.37
2022-11-24T00:18:55.816Z,997.38
2022-11-24T00:19:55.959Z,997.37
2022-11-24T00:20:56.084Z,997.37
2022-11-24T00:21:56.218Z,997.38
2022-11-24T00:22:56.335Z,997.40
2022-11-24T00:23:56.468Z,997.40
2022-11-24T00:24:56.714Z,997.45
2022-11-24T00:25:56.735Z,997.40
2022-11-24T00:26:56.875Z,997.42
2022-11-24T00:27:57.031Z,997.41
2022-11-24T00:28:57.234Z,997.41
2022-11-24T00:29:57.264Z,997.38
2022-11-24T00:30:57.434Z,997.38
2022-11-24T00:31:57.555Z,997.40
2022-11-24T00:32:57.685Z,997.40
2022-11-24T00:33:57.844Z,997.40
2022-11-24T00:34:57.983Z,997.40
2022-11-24T00:35:58.070Z,997.40
2022-11-24T00:36:58.256Z,997.41
2022-11-24T00:37:59.783Z,997.43
2022-11-24T00:38:58.502Z,997.50
2022-11-24T00:39:58.634Z,997.47
2022-11-24T00:40:58.762Z,997.49
2022-11-24T00:41:58.924Z,997.50
2022-11-24T00:42:59.052Z,997.51
2022-11-24T00:43:59.177Z,997.49
2022-11-24T00:44:59.311Z,997.51
2022-11-24T00:45:59.544Z,997.48
2022-11-24T00:46:59.777Z,997.48
2022-11-24T00:47:59.739Z,997.50
2022-11-24T00:48:59.863Z,997.52
2022-11-24T00:50:00.016Z,997.53
2022-11-24T00:51:00.165Z,997.55
2022-11-24T00:52:00.265Z,997.51
2022-11-24T00:53:00.379Z,997.55
2022-11-24T00:54:00.526Z,997.53
2022-11-24T00:55:00.699Z,997.52
2022-11-24T00:56:00.835Z,997.54
2022-11-24T00:57:00.985Z,997.52
2022-11-24T00:58:01.113Z,997.51
2022-11-24T00:59:01.261Z,997.52
2022-11-24T01:00:01.506Z,997.52
2022-11-24T01:01:01.611Z,997.54
2022-11-24T01:02:01.689Z,997.57
2022-11-24T01:03:01.856Z,997.59
2022-11-24T01:04:01.964Z,997.62
2022-11-24T01:05:02.122Z,997.64
2022-11-24T01:06:02.284Z,997.72
2022-11-24T01:07:02.407Z,997.62
2022-11-24T01:08:02.533Z,997.68
2022-11-24T01:09:02.674Z,997.71
2022-11-24T01:10:02.815Z,997.68
2022-11-24T01:11:03.043Z,997.67
2022-11-24T01:12:03.123Z,997.69
2022-11-24T01:13:03.300Z,997.70
2022-11-24T01:14:03.491Z,997.67
2022-11-24T01:15:03.642Z,997.73
2022-11-24T01:16:03.769Z,997.75
2022-11-24T01:17:03.855Z,997.70
2022-11-24T01:18:04.011Z,997.77
2022-11-24T01:19:04.164Z,997.72
2022-11-24T01:20:04.338Z,997.81
2022-11-24T01:21:09.675Z,997.72
2022-11-24T01:22:05.575Z,997.75
2022-11-24T01:23:04.778Z,997.83
2022-11-24T01:24:04.919Z,997.78
2022-11-24T01:25:05.123Z,997.75
2022-11-24T01:26:05.171Z,997.79
2022-11-24T01:27:05.297Z,997.82
2022-11-24T01:28:05.431Z,997.75
2022-11-24T01:29:05.571Z,997.75
2022-11-24T01:30:05.670Z,997.80
2022-11-24T01:31:05.889Z,997.78
2022-11-24T01:32:05.937Z,997.86
2022-11-24T01:33:06.067Z,997.85
2022-11-24T01:34:06.207Z,997.81
2022-11-24T01:35:06.307Z,997.83
2022-11-24T01:36:06.460Z,997.81
2022-11-24T01:37:06.578Z,997.87
2022-11-24T01:38:06.699Z,997.83
2022-11-24T01:39:06.859Z,997.80
2022-11-24T01:40:06.978Z,997.88
2022-11-24T01:41:07.138Z,997.90
2022-11-24T01:42:07.268Z,997.87
2022-11-24T01:43:07.440Z,997.89
2022-11-24T01:44:07.527Z,997.89
2022-11-24T01:45:07.749Z,997.88
2022-11-24T01:46:07.904Z,997.84
2022-11-24T01:47:07.897Z,997.85
2022-11-24T01:48:08.030Z,997.91
2022-11-24T01:49:08.155Z,997.88
2022-11-24T01:50:08.316Z,997.81
2022-11-24T01:51:08.474Z,997.91
2022-11-24T01:52:08.594Z,997.87
2022-11-24T01:53:08.719Z,997.89
2022-11-24T01:54:08.836Z,997.92
2022-11-24T01:55:09.005Z,997.91
2022-11-24T01:56:09.215Z,997.93
2022-11-24T01:57:09.252Z,998.02
2022-11-24T01:58:09.413Z,997.96
2022-11-24T01:59:09.537Z,997.97
2022-11-24T02:00:09.684Z,997.94
2022-11-24T02:01:09.849Z,997.97
2022-11-24T02:02:10.037Z,997.95
2022-11-24T02:03:10.095Z,998.02
2022-11-24T02:04:10.237Z,997.99
2022-11-24T02:05:10.425Z,997.96
2022-11-24T02:06:10.544Z,997.97
2022-11-24T02:07:10.704Z,997.99
2022-11-24T02:08:10.782Z,997.99
2022-11-24T02:09:10.910Z,998.00
2022-11-24T02:10:11.073Z,997.98
2022-11-24T02:11:11.230Z,998.05
2022-11-24T02:12:11.354Z,998.04
2022-11-24T02:13:11.509Z,998.05
2022-11-24T02:14:11.662Z,998.05
2022-11-24T02:15:11.810Z,998.07
2022-11-24T02:16:11.978Z,998.10
2022-11-24T02:17:12.078Z,998.10
2022-11-24T02:18:12.217Z,998.07
2022-11-24T02:19:12.317Z,998.05
2022-11-24T02:20:12.483Z,998.10
2022-11-24T02:21:12.678Z,998.14
2022-11-24T02:22:12.794Z,998.13
2022-11-24T02:23:12.955Z,998.16
2022-11-24T02:24:13.054Z,998.12
2022-11-24T02:25:13.197Z,998.11
2022-11-24T02:26:13.408Z,998.17
2022-11-24T02:27:13.494Z,998.18
2022-11-24T02:28:13.624Z,998.09
2022-11-24T02:29:13.752Z,998.09
2022-11-24T02:30:13.922Z,998.15
2022-11-24T02:31:14.092Z,998.20
2022-11-24T02:32:14.134Z,998.15
2022-11-24T02:33:14.297Z,998.18
2022-11-24T02:34:14.447Z,998.18
2022-11-24T02:35:14.592Z,998.15
2022-11-24T02:36:14.720Z,998.19
2022-11-24T02:37:14.872Z,998.12
2022-11-24T02:38:15.000Z,998.23
2022-11-24T02:39:15.179Z,998.22
2022-11-24T02:40:15.250Z,998.28
2022-11-24T02:41:15.401Z,998.31
2022-11-24T02:42:15.539Z,998.28
2022-11-24T02:43:15.702Z,998.31
2022-11-24T02:44:15.848Z,998.26
2022-11-24T02:45:15.976Z,998.31
2022-11-24T02:46:16.195Z,998.35
2022-11-24T02:47:16.319Z,998.32
2022-11-24T02:48:16.444Z,998.33
2022-11-24T02:49:16.554Z,998.37
2022-11-24T02:50:16.653Z,998.30
2022-11-24T02:51:16.805Z,998.31
2022-11-24T02:52:16.935Z,998.31
2022-11-24T02:53:17.062Z,998.36
2022-11-24T02:54:17.209Z,998.35
2022-11-24T02:55:17.352Z,998.35
2022-11-24T02:56:17.523Z,998.34
2022-11-24T02:57:17.672Z,998.37
2022-11-24T02:58:17.820Z,998.37
2022-11-24T02:59:17.941Z,998.40
2022-11-24T03:00:18.117Z,998.41
2022-11-24T03:01:18.313Z,998.37
2022-11-24T03:02:18.429Z,998.40
2022-11-24T03:03:18.569Z,998.44
2022-11-24T03:04:18.659Z,998.46
2022-11-24T03:05:18.780Z,998.44
2022-11-24T03:06:18.919Z,998.46
2022-11-24T03:07:19.125Z,998.46
2022-11-24T03:08:19.297Z,998.46
2022-11-24T03:09:19.304Z,998.52
2022-11-24T03:10:19.474Z,998.41
2022-11-24T03:11:19.574Z,998.43
2022-11-24T03:12:19.755Z,998.43
2022-11-24T03:13:19.890Z,998.48
2022-11-24T03:14:20.048Z,998.50
2022-11-24T03:15:20.140Z,998.49
2022-11-24T03:16:20.351Z,998.50
2022-11-24T03:17:20.439Z,998.54
2022-11-24T03:18:20.589Z,998.56
2022-11-24T03:19:20.769Z,998.56
2022-11-24T03:20:20.847Z,998.52
2022-11-24T03:21:20.975Z,998.61
2022-11-24T03:22:21.137Z,998.58
2022-11-24T03:23:21.330Z,998.57
2022-11-24T03:24:21.506Z,998.57
2022-11-24T03:25:21.587Z,998.62
2022-11-24T03:26:21.698Z,998.58
2022-11-24T03:27:21.871Z,998.58
2022-11-24T03:28:21.998Z,998.63
2022-11-24T03:29:22.128Z,998.63
2022-11-24T03:30:22.291Z,998.56
2022-11-24T03:31:22.477Z,998.63
2022-11-24T03:32:22.559Z,998.63
2022-11-24T03:33:22.658Z,998.63
2022-11-24T03:34:22.800Z,998.63
2022-11-24T03:35:22.926Z,998.62
2022-11-24T03:36:23.063Z,998.66
2022-11-24T03:37:23.185Z,998.65
2022-11-24T03:38:23.317Z,998.65
2022-11-24T03:39:23.437Z,998.73
2022-11-24T03:40:23.567Z,998.65
2022-11-24T03:41:23.739Z,998.70
2022-11-24T03:42:23.937Z,998.66
2022-11-24T03:43:24.013Z,998.62
2022-11-24T03:44:24.136Z,998.60
2022-11-24T03:46:25.484Z,998.73
2022-11-24T03:47:24.650Z,998.69
2022-11-24T03:48:24.769Z,998.70
2022-11-24T03:49:24.916Z,998.69
2022-11-24T03:50:25.048Z,998.71
2022-11-24T03:51:25.175Z,998.78
2022-11-24T03:52:25.317Z,998.70
2022-11-24T03:53:25.476Z,998.63
2022-11-24T03:54:25.635Z,998.69
2022-11-24T03:55:25.824Z,998.73
2022-11-24T03:56:25.966Z,998.71
2022-11-24T03:57:26.126Z,998.76
2022-11-24T03:58:26.267Z,998.81
2022-11-24T03:59:26.384Z,998.78
2022-11-24T04:00:26.612Z,998.86
2022-11-24T04:01:26.725Z,998.78
2022-11-24T04:02:26.786Z,998.88
2022-11-24T04:03:27.306Z,998.80
2022-11-24T04:04:27.033Z,998.83
2022-11-24T04:05:27.346Z,998.86
2022-11-24T04:06:27.273Z,998.91
2022-11-24T04:07:27.419Z,998.86
2022-11-24T04:08:27.565Z,998.88
2022-11-24T04:09:27.714Z,998.91
2022-11-24T04:10:27.883Z,998.96
2022-11-24T04:11:28.016Z,998.97
2022-11-24T04:12:28.169Z,998.95
2022-11-24T04:13:28.301Z,998.93
2022-11-24T04:14:28.454Z,998.97
2022-11-24T04:15:28.703Z,998.96
2022-11-24T04:16:28.813Z,998.95
2022-11-24T04:17:28.883Z,998.95
2022-11-24T04:18:29.015Z,999.00
2022-11-24T04:19:29.176Z,998.95
2022-11-24T04:20:29.294Z,998.91
2022-11-24T04:21:29.443Z,998.91
2022-11-24T04:22:29.524Z,998.94
2022-11-24T04:23:29.663Z,998.94
2022-11-24T04:24:29.814Z,998.97
2022-11-24T04:25:29.942Z,999.03
2022-11-24T04:26:30.088Z,999.03
2022-11-24T04:27:30.233Z,999.08
2022-11-24T04:28:30.354Z,999.08
2022-11-24T04:29:30.530Z,999.06
2022-11-24T04:30:30.684Z,999.03
2022-11-24T04:31:30.883Z,999.06
2022-11-24T04:32:30.975Z,999.05
2022-11-24T04:33:31.123Z,999.07
2022-11-24T04:34:31.738Z,999.08
2022-11-24T04:35:31.444Z,999.08
2022-11-24T04:36:31.571Z,999.11
2022-11-24T04:37:31.690Z,999.12
2022-11-24T04:39:23.057Z,999.16
2022-11-24T04:39:32.993Z,999.14
2022-11-24T04:40:32.071Z,999.15
2022-11-24T04:41:32.200Z,999.27
2022-11-24T04:42:32.334Z,999.20
2022-11-24T04:43:37.714Z,999.24
2022-11-24T04:44:34.041Z,999.15
2022-11-24T04:45:32.804Z,999.19
2022-11-24T04:46:33.051Z,999.21
2022-11-24T04:47:33.090Z,999.22
2022-11-24T04:48:33.250Z,999.25
2022-11-24T04:49:33.382Z,999.33
2022-11-24T04:50:33.518Z,999.25
2022-11-24T04:51:33.660Z,999.30
2022-11-24T04:52:33.799Z,999.33
2022-11-24T04:53:33.981Z,999.30
2022-11-24T04:54:34.275Z,999.37
2022-11-24T04:55:34.170Z,999.36
2022-11-24T04:56:34.299Z,999.38
2022-11-24T04:57:34.430Z,999.37
2022-11-24T04:58:34.567Z,999.38
2022-11-24T04:59:34.731Z,999.43
2022-11-24T05:00:34.903Z,999.45
2022-11-24T05:01:35.904Z,999.40
2022-11-24T05:02:35.199Z,999.49
2022-11-24T05:03:35.320Z,999.51
2022-11-24T05:04:35.785Z,999.47
2022-11-24T05:05:35.560Z,999.48
2022-11-24T05:06:35.679Z,999.52
2022-11-24T05:07:35.846Z,999.48
2022-11-24T05:08:35.994Z,999.46
2022-11-24T05:09:58.200Z,999.55
2022-11-24T05:10:37.199Z,999.47
2022-11-24T05:11:36.308Z,999.47
2022-11-24T05:12:36.470Z,999.50
2022-11-24T05:13:36.598Z,999.54
2022-11-24T05:14:36.729Z,999.55
2022-11-24T05:15:36.849Z,999.51
2022-11-24T05:16:37.028Z,999.52
2022-11-24T05:17:37.140Z,999.59
2022-11-24T05:18:37.290Z,999.61
2022-11-24T05:19:37.422Z,999.68
2022-11-24T05:20:37.577Z,999.66
2022-11-24T05:21:37.717Z,999.70
2022-11-24T05:22:37.890Z,999.67
2022-11-24T05:23:37.978Z,999.62
2022-11-24T05:24:38.097Z,999.69
2022-11-24T05:25:38.217Z,999.72
2022-11-24T05:26:38.407Z,999.81
2022-11-24T05:27:38.469Z,999.83
2022-11-24T05:28:38.606Z,999.78
2022-11-24T05:29:38.754Z,999.80
2022-11-24T05:30:38.893Z,999.85
2022-11-24T05:31:39.089Z,999.84
2022-11-24T05:32:39.165Z,999.82
2022-11-24T05:33:39.298Z,999.83
2022-11-24T05:34:39.460Z,999.89
2022-11-24T05:35:39.616Z,999.89
2022-11-24T05:36:39.795Z,999.93
2022-11-24T05:37:39.906Z,999.89
2022-11-24T05:38:40.055Z,999.86
2022-11-24T05:39:40.189Z,999.86
2022-11-24T05:40:40.315Z,999.88
2022-11-24T05:41:40.428Z,999.90
2022-11-24T05:42:45.120Z,999.93
2022-11-24T05:43:41.751Z,999.92
2022-11-24T05:44:40.835Z,999.95
2022-11-24T05:45:40.954Z,999.88
2022-11-24T05:46:41.133Z,999.97
2022-11-24T05:47:41.236Z,999.96
2022-11-24T05:48:41.378Z,1000.00
2022-11-24T05:49:41.530Z,999.98
2022-11-24T05:50:41.649Z,999.98
2022-11-24T05:51:41.776Z,999.99
2022-11-24T05:52:41.906Z,999.97
2022-11-24T05:53:42.077Z,1000.02
2022-11-24T05:54:42.311Z,1000.05
2022-11-24T05:55:42.384Z,1000.10
2022-11-24T05:56:42.733Z,1000.07
2022-11-24T05:57:42.640Z,1000.11
2022-11-24T05:58:42.765Z,1000.14
2022-11-24T05:59:42.892Z,1000.17
2022-11-24T06:00:43.055Z,1000.16
2022-11-24T06:01:43.344Z,1000.20
2022-11-24T06:02:43.427Z,1000.20
2022-11-24T06:03:43.413Z,1000.21
2022-11-24T06:04:43.546Z,1000.21
2022-11-24T06:05:43.715Z,1000.22
2022-11-24T06:06:43.860Z,1000.22
2022-11-24T06:07:44.045Z,1000.19
2022-11-24T06:08:44.154Z,1000.23
2022-11-24T06:09:44.289Z,1000.20
2022-11-24T06:10:44.432Z,1000.29
2022-11-24T06:11:45.297Z,1000.30
2022-11-24T06:12:44.753Z,1000.29
2022-11-24T06:13:44.998Z,1000.29
2022-11-24T06:14:45.805Z,1000.33
2022-11-24T06:15:45.162Z,1000.32
2022-11-24T06:16:45.369Z,1000.32
2022-11-24T06:17:45.433Z,1000.38
2022-11-24T06:18:45.568Z,1000.37
2022-11-24T06:19:45.762Z,1000.38
2022-11-24T06:21:02.791Z,1000.35
2022-11-24T06:21:47.052Z,1000.39
2022-11-24T06:22:46.180Z,1000.39
2022-11-24T06:23:46.305Z,1000.38
2022-11-24T06:24:46.444Z,1000.40
2022-11-24T06:25:51.356Z,1000.43
2022-11-24T06:26:47.762Z,1000.46
2022-11-24T06:27:46.874Z,1000.43
2022-11-24T06:28:46.993Z,1000.41
2022-11-24T06:29:47.112Z,1000.40
2022-11-24T06:30:47.251Z,1000.46
2022-11-24T06:31:47.445Z,1000.44
2022-11-24T06:32:49.635Z,1000.42
2022-11-24T06:33:47.713Z,1000.45
2022-11-24T06:34:47.993Z,1000.47
2022-11-24T06:35:48.018Z,1000.48
2022-11-24T06:36:48.166Z,1000.51
2022-11-24T06:37:48.322Z,1000.50
2022-11-24T06:38:48.472Z,1000.48
2022-11-24T06:39:48.591Z,1000.54
2022-11-24T06:40:48.729Z,1000.52
2022-11-24T06:41:48.910Z,1000.58
2022-11-24T06:42:49.040Z,1000.60
2022-11-24T06:43:49.159Z,1000.62
2022-11-24T06:44:49.282Z,1000.58
2022-11-24T06:45:49.457Z,1000.60
2022-11-24T06:46:49.572Z,1000.63
2022-11-24T06:47:49.692Z,1000.68
2022-11-24T06:48:49.818Z,1000.60
2022-11-24T06:49:49.939Z,1000.62
2022-11-24T06:50:50.070Z,1000.66
2022-11-24T06:51:50.232Z,1000.66
2022-11-24T06:52:50.368Z,1000.64
2022-11-24T06:53:50.679Z,1000.65
2022-11-24T06:54:50.769Z,1000.71
2022-11-24T06:55:50.994Z,1000.67
2022-11-24T06:56:51.688Z,1000.59
2022-11-24T06:57:51.779Z,1000.69
2022-11-24T06:58:51.849Z,1000.65
2022-11-24T06:59:51.377Z,1000.69
2022-11-24T07:00:52.524Z,1000.67
2022-11-24T07:01:52.157Z,1000.68
2022-11-24T07:02:51.929Z,1000.74
2022-11-24T07:03:52.002Z,1000.76
2022-11-24T07:04:52.888Z,1000.79
2022-11-24T07:05:52.330Z,1000.81
2022-11-24T07:06:53.122Z,1000.85
2022-11-24T07:07:53.272Z,1000.78
2022-11-24T07:08:52.731Z,1000.82
2022-11-24T07:09:52.857Z,1000.92
2022-11-24T07:10:52.999Z,1000.90
2022-11-24T07:11:53.148Z,1000.91
2022-11-24T07:12:53.277Z,1000.93
2022-11-24T07:13:59.666Z,1000.92
2022-11-24T07:14:54.608Z,1000.95
2022-11-24T07:15:53.715Z,1000.96
2022-11-24T07:16:53.899Z,1000.92
2022-11-24T07:17:53.979Z,1000.89
2022-11-24T07:18:54.167Z,1001.02
2022-11-24T07:19:54.316Z,1000.98
2022-11-24T07:20:54.459Z,1001.01
2022-11-24T07:21:54.576Z,1000.98
2022-11-24T07:22:54.707Z,1000.95
2022-11-24T07:23:54.874Z,1001.00
2022-11-24T07:24:55.017Z,1001.12
2022-11-24T07:25:55.118Z,1001.17
2022-11-24T07:26:55.284Z,1001.19
2022-11-24T07:27:55.435Z,1001.23
2022-11-24T07:28:55.577Z,1001.19
2022-11-24T07:29:55.726Z,1001.19
2022-11-24T07:30:55.843Z,1001.17
2022-11-24T07:31:58.541Z,1001.15
2022-11-24T07:32:57.197Z,1001.19
2022-11-24T07:33:56.337Z,1001.29
2022-11-24T07:34:56.484Z,1001.23
2022-11-24T07:35:56.621Z,1001.32
2022-11-24T07:36:56.747Z,1001.30
2022-11-24T07:37:56.905Z,1001.35
2022-11-24T07:38:57.065Z,1001.32
2022-11-24T07:39:57.196Z,1001.34
2022-11-24T07:40:57.348Z,1001.36
2022-11-24T07:41:57.490Z,1001.42
2022-11-24T07:42:57.625Z,1001.34
2022-11-24T07:43:57.845Z,1001.40
2022-11-24T07:44:57.914Z,1001.35
2022-11-24T07:45:58.171Z,1001.41
2022-11-24T07:46:58.176Z,1001.41
2022-11-24T07:47:58.306Z,1001.40
2022-11-24T07:48:58.486Z,1001.45
2022-11-24T07:49:58.546Z,1001.41
2022-11-24T07:50:58.708Z,1001.45
2022-11-24T07:51:58.834Z,1001.48
2022-11-24T07:52:58.976Z,1001.44
2022-11-24T07:53:59.137Z,1001.62
2022-11-24T07:54:59.276Z,1001.49
2022-11-24T07:55:59.443Z,1001.51
2022-11-24T07:56:59.594Z,1001.55
2022-11-24T07:57:59.779Z,1001.51
2022-11-24T07:58:59.936Z,1001.57
2022-11-24T08:00:00.023Z,1001.66
2022-11-24T08:01:00.182Z,1001.66
2022-11-24T08:02:00.426Z,1001.63
2022-11-24T08:03:00.455Z,1001.64
2022-11-24T08:04:00.685Z,1001.64
2022-11-24T08:05:00.731Z,1001.68
2022-11-24T08:06:22.737Z,1001.73
2022-11-24T08:07:02.031Z,1001.69
2022-11-24T08:08:01.199Z,1001.69
2022-11-24T08:09:01.316Z,1001.75
2022-11-24T08:10:01.424Z,1001.75
2022-11-24T08:11:01.572Z,1001.79
2022-11-24T08:12:01.809Z,1001.79
2022-11-24T08:13:01.853Z,1001.88
2022-11-24T08:14:01.999Z,1001.82
2022-11-24T08:15:04.340Z,1001.88
2022-11-24T08:16:03.254Z,1001.88
2022-11-24T08:17:02.390Z,1001.92
2022-11-24T08:18:02.532Z,1001.93
2022-11-24T08:19:02.662Z,1001.90
2022-11-24T08:20:02.806Z,1001.95
2022-11-24T08:21:02.979Z,1001.99
2022-11-24T08:22:03.132Z,1002.00
2022-11-24T08:23:03.273Z,1001.96
2022-11-24T08:24:03.403Z,1002.01
2022-11-24T08:25:03.533Z,1002.01
2022-11-24T08:26:03.673Z,1002.02
2022-11-24T08:27:03.831Z,1002.02
2022-11-24T08:28:03.902Z,1002.07
2022-11-24T08:29:04.089Z,1002.06
2022-11-24T08:30:04.153Z,1002.05
2022-11-24T08:31:04.293Z,1002.04
2022-11-24T08:32:04.547Z,1002.16
2022-11-24T08:33:04.622Z,1002.05
2022-11-24T08:34:04.718Z,1002.09
2022-11-24T08:35:19.427Z,1002.08
2022-11-24T08:36:06.003Z,1002.13
2022-11-24T08:37:05.152Z,1002.17
2022-11-24T08:38:06.022Z,1002.23
2022-11-24T08:39:05.456Z,1002.24
2022-11-24T08:40:05.588Z,1002.29
2022-11-24T08:41:06.439Z,1002.20
2022-11-24T08:42:05.873Z,1002.32
2022-11-24T08:43:06.042Z,1002.29
2022-11-24T08:44:06.169Z,1002.27
2022-11-24T08:45:20.039Z,1002.28
2022-11-24T08:46:07.455Z,1002.26
2022-11-24T08:47:06.577Z,1002.29
2022-11-24T08:48:06.723Z,1002.30
2022-11-24T08:49:06.859Z,1002.33
2022-11-24T08:50:06.931Z,1002.31
2022-11-24T08:51:07.061Z,1002.36
2022-11-24T08:52:07.179Z,1002.32
2022-11-24T08:53:07.374Z,1002.32
2022-11-24T08:54:07.484Z,1002.35
2022-11-24T08:55:07.605Z,1002.43
2022-11-24T08:56:07.769Z,1002.42
2022-11-24T08:57:07.901Z,1002.46
2022-11-24T08:58:08.080Z,1002.48
2022-11-24T08:59:08.220Z,1002.55
2022-11-24T09:00:08.320Z,1002.53
2022-11-24T09:01:08.482Z,1002.58
2022-11-24T09:02:08.573Z,1002.58
2022-11-24T09:03:08.727Z,1002.58
2022-11-24T09:04:08.909Z,1002.51
2022-11-24T09:05:28.841Z,1002.56
2022-11-24T09:06:10.145Z,1002.65
2022-11-24T09:07:09.300Z,1002.60
2022-11-24T09:08:09.459Z,1002.67
2022-11-24T09:09:09.654Z,1002.65
2022-11-24T09:10:09.741Z,1002.64
2022-11-24T09:11:09.895Z,1002.62
2022-11-24T09:12:14.312Z,1002.68
2022-11-24T09:13:10.145Z,1002.66
2022-11-24T09:14:10.310Z,1002.70
2022-11-24T09:15:10.464Z,1002.72
2022-11-24T09:16:10.608Z,1002.69
2022-11-24T09:17:10.861Z,1002.70
2022-11-24T09:18:10.937Z,1002.71
2022-11-24T09:19:11.117Z,1002.84
2022-11-24T09:20:11.216Z,1002.78
2022-11-24T09:21:11.391Z,1002.79
2022-11-24T09:22:11.558Z,1002.83
2022-11-24T09:23:11.697Z,1002.78
2022-11-24T09:24:11.834Z,1002.87
2022-11-24T09:25:12.009Z,1002.84
2022-11-24T09:26:12.146Z,1002.91
2022-11-24T09:27:12.309Z,1002.85
2022-11-24T09:28:12.467Z,1002.89
2022-11-24T09:29:12.646Z,1002.91
2022-11-24T09:30:12.808Z,1002.89
2022-11-24T09:31:12.998Z,1002.92
2022-11-24T09:32:13.167Z,1002.92
2022-11-24T09:33:13.225Z,1002.92
2022-11-24T09:34:13.379Z,1002.94
2022-11-24T09:35:13.549Z,1002.99
2022-11-24T09:36:13.687Z,1003.00
2022-11-24T09:37:13.847Z,1002.92
2022-11-24T09:38:13.987Z,1002.98
2022-11-24T09:39:14.152Z,1002.99
2022-11-24T09:40:14.324Z,1002.96
2022-11-24T09:41:14.389Z,1003.05
2022-11-24T09:42:14.514Z,1003.06
2022-11-24T09:43:14.656Z,1003.07
2022-11-24T09:44:14.806Z,1003.09
2022-11-24T09:45:14.935Z,1003.12
2022-11-24T09:46:15.112Z,1003.16
2022-11-24T09:47:15.225Z,1003.18
2022-11-24T09:48:15.367Z,1003.19
2022-11-24T09:49:15.510Z,1003.22
2022-11-24T09:50:15.656Z,1003.26
2022-11-24T09:51:15.765Z,1003.27
2022-11-24T09:52:15.924Z,1003.30
2022-11-24T09:53:16.064Z,1003.35
2022-11-24T09:54:16.204Z,1003.27
2022-11-24T09:55:16.305Z,1003.26
2022-11-24T09:56:16.486Z,1003.19
2022-11-24T09:57:16.558Z,1003.29
2022-11-24T09:58:16.692Z,1003.26
2022-11-24T09:59:16.812Z,1003.26
2022-11-24T10:00:16.966Z,1003.30
2022-11-24T10:01:17.154Z,1003.34
2022-11-24T10:02:17.262Z,1003.27
2022-11-24T10:03:17.385Z,1003.35
2022-11-24T10:04:17.539Z,1003.35
2022-11-24T10:05:17.643Z,1003.38
2022-11-24T10:06:17.808Z,1003.37
2022-11-24T10:07:17.995Z,1003.38
2022-11-24T10:08:18.113Z,1003.43
2022-11-24T10:09:18.246Z,1003.40
2022-11-24T10:10:24.315Z,1003.41
2022-11-24T10:11:19.493Z,1003.37
2022-11-24T10:12:18.634Z,1003.41
2022-11-24T10:13:18.783Z,1003.37
2022-11-24T10:14:18.923Z,1003.36
2022-11-24T10:15:19.127Z,1003.41
2022-11-24T10:16:19.241Z,1003.45
2022-11-24T10:17:19.357Z,1003.49
2022-11-24T10:18:19.495Z,1003.57
2022-11-24T10:19:19.582Z,1003.57
2022-11-24T10:20:19.713Z,1003.52
2022-11-24T10:21:19.852Z,1003.60
2022-11-24T10:22:20.003Z,1003.55
2022-11-24T10:23:20.155Z,1003.61
2022-11-24T10:24:20.271Z,1003.64
2022-11-24T10:25:20.433Z,1003.62
2022-11-24T10:26:20.594Z,1003.64
2022-11-24T10:27:20.732Z,1003.66
2022-11-24T10:28:20.894Z,1003.57
2022-11-24T10:29:21.049Z,1003.63
2022-11-24T10:30:21.226Z,1003.60
2022-11-24T10:31:21.361Z,1003.67
2022-11-24T10:32:21.449Z,1003.65
2022-11-24T10:33:27.124Z,1003.65
2022-11-24T10:34:22.754Z,1003.62
2022-11-24T10:35:21.898Z,1003.67
2022-11-24T10:36:22.041Z,1003.67
2022-11-24T10:37:22.141Z,1003.75
2022-11-24T10:38:23.008Z,1003.71
2022-11-24T10:39:22.414Z,1003.77
2022-11-24T10:40:40.940Z,1003.81
2022-11-24T10:41:23.680Z,1003.74
2022-11-24T10:42:22.821Z,1003.75
2022-11-24T10:43:22.929Z,1003.76
2022-11-24T10:44:24.562Z,1003.78
2022-11-24T10:45:23.288Z,1003.80
2022-11-24T10:46:23.384Z,1003.79
2022-11-24T10:47:23.471Z,1003.78
2022-11-24T10:48:23.610Z,1003.78
2022-11-24T10:49:23.699Z,1003.78
2022-11-24T10:50:23.828Z,1003.85
2022-11-24T10:51:23.930Z,1003.88
2022-11-24T10:52:24.082Z,1003.85
2022-11-24T10:53:24.238Z,1003.97
2022-11-24T10:54:24.320Z,1003.97
2022-11-24T10:55:24.477Z,1003.95
2022-11-24T10:56:24.601Z,1003.95
2022-11-24T10:57:24.696Z,1003.97
2022-11-24T10:58:24.860Z,1004.01
2022-11-24T10:59:25.011Z,1003.95
2022-11-24T11:00:25.175Z,1003.95
2022-11-24T11:01:25.208Z,1004.00
2022-11-24T11:02:25.316Z,1003.99
2022-11-24T11:03:25.414Z,1003.98
2022-11-24T11:04:25.531Z,1004.05
2022-11-24T11:05:25.617Z,1004.04
2022-11-24T11:06:25.720Z,1004.04
2022-11-24T11:07:25.912Z,1004.08
2022-11-24T11:08:26.061Z,1004.05
2022-11-24T11:09:26.148Z,1003.97
2022-11-24T11:10:26.281Z,1004.09
2022-11-24T11:11:26.379Z,1004.02
2022-11-24T11:13:27.633Z,1004.03
2022-11-24T11:14:26.751Z,1004.03
2022-11-24T11:15:27.110Z,1004.05
2022-11-24T11:16:27.119Z,1004.01
2022-11-24T11:17:27.107Z,1004.03
2022-11-24T11:18:27.307Z,1004.08
2022-11-24T11:19:47.876Z,1004.07
2022-11-24T11:20:28.526Z,1004.07
2022-11-24T11:21:27.619Z,1004.10
2022-11-24T11:22:27.834Z,1004.12
2022-11-24T11:23:27.889Z,1004.06
2022-11-24T11:24:28.019Z,1004.09
2022-11-24T11:25:28.114Z,1004.15
2022-11-24T11:26:28.240Z,1004.16
2022-11-24T11:27:28.340Z,1004.16
2022-11-24T11:28:28.451Z,1004.09
2022-11-24T11:31:29.809Z,1004.18
2022-11-24T11:34:30.592Z,1004.25
2022-11-24T11:35:29.280Z,1004.26
2022-11-24T11:36:29.398Z,1004.26
2022-11-24T11:37:29.497Z,1004.31
2022-11-24T11:38:29.636Z,1004.31
2022-11-24T11:39:29.789Z,1004.36
2022-11-24T11:40:29.966Z,1004.35
2022-11-24T11:41:30.090Z,1004.36
2022-11-24T11:43:00.789Z,1004.36
2022-11-24T11:43:31.257Z,1004.33
2022-11-24T11:44:30.429Z,1004.36
2022-11-24T11:45:30.639Z,1004.43
2022-11-24T11:46:30.673Z,1004.42
2022-11-24T11:47:30.757Z,1004.45
2022-11-24T11:48:37.036Z,1004.42
2022-11-24T11:49:32.039Z,1004.44
2022-11-24T11:50:31.206Z,1004.43
2022-11-24T11:51:31.443Z,1004.52
2022-11-24T11:52:31.380Z,1004.57
2022-11-24T11:53:38.087Z,1004.45
2022-11-24T11:54:31.866Z,1004.47
2022-11-24T11:55:31.705Z,1004.55
2022-11-24T11:56:31.866Z,1004.46
2022-11-24T11:57:31.949Z,1004.42
2022-11-24T11:58:32.100Z,1004.45
2022-11-24T11:59:32.213Z,1004.44
2022-11-24T12:00:32.327Z,1004.43
2022-11-24T12:01:32.456Z,1004.40
2022-11-24T12:02:32.614Z,1004.38
2022-11-24T12:03:32.793Z,1004.41
2022-11-24T12:04:33.122Z,1004.34
2022-11-24T12:05:32.935Z,1004.51
2022-11-24T12:06:33.097Z,1004.37
2022-11-24T12:07:33.247Z,1004.44
2022-11-24T12:08:55.821Z,1004.40
2022-11-24T12:09:34.708Z,1004.38
2022-11-24T12:10:33.597Z,1004.37
2022-11-24T12:11:33.689Z,1004.39
2022-11-24T12:12:33.836Z,1004.34
2022-11-24T12:13:33.938Z,1004.35
2022-11-24T12:14:34.095Z,1004.32
2022-11-24T12:15:34.238Z,1004.31
2022-11-24T12:16:34.365Z,1004.37
2022-11-24T12:17:34.457Z,1004.36
2022-11-24T12:18:56.370Z,1004.39
2022-11-24T12:19:36.053Z,1004.39
2022-11-24T12:20:34.870Z,1004.40
2022-11-24T12:21:34.977Z,1004.33
2022-11-24T12:22:35.085Z,1004.31
2022-11-24T12:23:35.194Z,1004.36
2022-11-24T12:24:35.379Z,1004.24